Time;durP1;ratioP1;P1;durP2;ratioP2;P2;SDS_P1;SDS_P2;PMS_P1;PMS_P2;Temp;Humidity;BMP_temperature;BMP_pressure;BME280_temperature;BME280_humidity;BME280_pressure;Samples;Min_cycle;Max_cycle;Signal;HPM_P1;HPM_P2
2024/02/28 00:00:14;;;;;;;0.10;0.10;;;;;;;;;;5098428;28;20079;-84
2024/02/28 00:02:40;;;;;;;0.10;0.10;;;;;;;;;;5081360;28;20048;-83
2024/02/28 00:05:06;;;;;;;0.10;0.10;;;;;;;;;;5081389;28;20122;-83
2024/02/28 00:07:32;;;;;;;0.20;0.20;;;;;;;;;;5098045;28;20039;-84
2024/02/28 00:09:58;;;;;;;0.10;0.10;;;;;;;;;;5098528;28;20031;-83
2024/02/28 00:12:25;;;;;;;0.10;0.10;;;;;;;;;;5081114;28;20036;-83
2024/02/28 00:14:51;;;;;;;0.77;0.32;;;;;;;;;;5098101;28;20075;-84
2024/02/28 00:17:17;;;;;;;0.47;0.20;;;;;;;;;;5098347;28;20130;-84
2024/02/28 00:19:43;;;;;;;0.10;0.10;;;;;;;;;;5098101;28;20043;-84
2024/02/28 00:22:10;;;;;;;0.10;0.10;;;;;;;;;;5097771;28;20448;-84
2024/02/28 00:24:36;;;;;;;0.10;0.10;;;;;;;;;;5080870;28;20127;-83
2024/02/28 00:27:02;;;;;;;0.10;0.10;;;;;;;;;;5080927;28;20039;-83
2024/02/28 00:29:28;;;;;;;0.10;0.10;;;;;;;;;;5097746;28;20067;-83
2024/02/28 00:31:55;;;;;;;0.10;0.10;;;;;;;;;;5097845;28;20085;-84
2024/02/28 00:34:21;;;;;;;0.10;0.10;;;;;;;;;;5097674;28;20494;-83
2024/02/28 00:36:47;;;;;;;0.20;0.20;;;;;;;;;;5097936;28;20391;-84
2024/02/28 00:39:13;;;;;;;0.10;0.10;;;;;;;;;;5114946;28;20093;-83
2024/02/28 00:41:39;;;;;;;0.10;0.10;;;;;;;;;;5080626;28;20044;-84
2024/02/28 00:44:05;;;;;;;0.47;0.20;;;;;;;;;;5097415;28;20482;-84
2024/02/28 00:46:31;;;;;;;0.10;0.10;;;;;;;;;;5097439;28;20046;-83
2024/02/28 00:48:57;;;;;;;0.10;0.10;;;;;;;;;;5097665;28;20036;-84
2024/02/28 00:51:23;;;;;;;0.30;0.30;;;;;;;;;;5097148;28;20391;-84
2024/02/28 00:53:49;;;;;;;0.10;0.10;;;;;;;;;;5114206;28;20471;-83
2024/02/28 00:56:16;;;;;;;0.20;0.20;;;;;;;;;;5080524;28;20495;-84
2024/02/28 00:58:42;;;;;;;0.10;0.10;;;;;;;;;;5080385;28;20040;-84
2024/02/28 01:01:08;;;;;;;0.10;0.10;;;;;;;;;;5080231;28;20167;-83
2024/02/28 01:03:34;;;;;;;2.13;0.38;;;;;;;;;;5096978;28;20047;-84
2024/02/28 01:06:01;;;;;;;0.28;0.28;;;;;;;;;;5080147;28;20118;-84
2024/02/28 01:08:27;;;;;;;0.20;0.20;;;;;;;;;;5097426;28;20046;-83
2024/02/28 01:10:53;;;;;;;0.10;0.10;;;;;;;;;;5080082;28;20489;-84
2024/02/28 01:13:19;;;;;;;0.10;0.10;;;;;;;;;;5097061;28;20035;-84
2024/02/28 01:15:45;;;;;;;0.10;0.10;;;;;;;;;;5080460;28;20043;-83
2024/02/28 01:18:11;;;;;;;0.10;0.10;;;;;;;;;;5097194;28;20084;-84
2024/02/28 01:20:37;;;;;;;0.10;0.10;;;;;;;;;;5096595;28;20095;-83
2024/02/28 01:23:03;;;;;;;0.10;0.10;;;;;;;;;;5079701;28;20078;-84
2024/02/28 01:25:29;;;;;;;0.40;0.40;;;;;;;;;;5096694;28;20040;-83
2024/02/28 01:27:59;;;;;;;0.22;0.22;;;;;;;;;;5079824;28;20039;-84
2024/02/28 01:30:25;;;;;;;0.10;0.10;;;;;;;;;;5080011;28;20040;-84
2024/02/28 01:32:52;;;;;;;1.08;0.20;;;;;;;;;;5096817;28;20436;-84
2024/02/28 01:35:18;;;;;;;0.10;0.10;;;;;;;;;;5079681;28;20482;-85
2024/02/28 01:37:44;;;;;;;0.30;0.30;;;;;;;;;;5096260;28;20043;-84
2024/02/28 01:40:10;;;;;;;0.20;0.20;;;;;;;;;;5113368;28;20471;-84
2024/02/28 01:42:37;;;;;;;0.20;0.20;;;;;;;;;;5096472;28;20387;-84
2024/02/28 01:45:03;;;;;;;0.10;0.10;;;;;;;;;;5096290;28;20092;-84
2024/02/28 01:47:29;;;;;;;0.10;0.10;;;;;;;;;;5113301;28;20070;-84
2024/02/28 01:49:55;;;;;;;0.10;0.10;;;;;;;;;;5079237;28;20483;-84
2024/02/28 01:52:21;;;;;;;0.10;0.10;;;;;;;;;;5096504;28;20130;-84
2024/02/28 01:54:47;;;;;;;0.15;0.15;;;;;;;;;;5096413;28;20478;-84
2024/02/28 01:57:13;;;;;;;0.10;0.10;;;;;;;;;;5112977;28;20056;-84
2024/02/28 01:59:39;;;;;;;0.10;0.10;;;;;;;;;;5079163;28;20122;-84
2024/02/28 02:02:05;;;;;;;0.20;0.20;;;;;;;;;;5078786;28;20056;-84
2024/02/28 02:04:31;;;;;;;0.20;0.20;;;;;;;;;;5078966;28;20056;-84
2024/02/28 02:06:59;;;;;;;0.10;0.10;;;;;;;;;;5078422;28;20075;-84
2024/02/28 02:09:26;;;;;;;0.10;0.10;;;;;;;;;;5079170;28;20498;-84
2024/02/28 02:11:52;;;;;;;0.15;0.15;;;;;;;;;;5095797;28;20036;-83
2024/02/28 02:14:18;;;;;;;0.10;0.10;;;;;;;;;;5095805;28;20089;-84
2024/02/28 02:16:44;;;;;;;0.10;0.10;;;;;;;;;;5078991;28;20035;-84
2024/02/28 02:19:11;;;;;;;0.15;0.15;;;;;;;;;;5078729;28;20172;-84
2024/02/28 02:21:50;;;;;;;0.10;0.10;;;;;;;;;;5112439;28;20050;-84
2024/02/28 02:24:16;;;;;;;0.20;0.20;;;;;;;;;;5095560;28;20039;-84
2024/02/28 02:26:44;;;;;;;0.10;0.10;;;;;;;;;;5078596;28;20082;-84
2024/02/28 02:29:10;;;;;;;0.10;0.10;;;;;;;;;;5078939;28;20110;-84
2024/02/28 02:31:37;;;;;;;0.10;0.10;;;;;;;;;;5078688;28;20067;-84
2024/02/28 02:34:03;;;;;;;0.20;0.20;;;;;;;;;;5095328;28;20040;-84
2024/02/28 02:36:29;;;;;;;0.10;0.10;;;;;;;;;;5095312;28;20122;-84
2024/02/28 02:38:55;;;;;;;0.20;0.20;;;;;;;;;;5078581;28;20039;-83
2024/02/28 02:41:21;;;;;;;0.20;0.20;;;;;;;;;;5078401;28;20542;-84
2024/02/28 02:43:47;;;;;;;0.40;0.40;;;;;;;;;;5094953;28;20441;-85
2024/02/28 02:46:13;;;;;;;0.10;0.10;;;;;;;;;;5078187;28;20126;-83
2024/02/28 02:48:39;;;;;;;0.10;0.10;;;;;;;;;;5078410;28;20112;-84
2024/02/28 02:51:05;;;;;;;0.10;0.10;;;;;;;;;;5094988;28;20390;-83
2024/02/28 02:53:31;;;;;;;0.10;0.10;;;;;;;;;;5078082;28;20090;-83
2024/02/28 02:55:57;;;;;;;0.10;0.10;;;;;;;;;;5078080;28;20483;-83
2024/02/28 02:58:23;;;;;;;0.10;0.10;;;;;;;;;;5111830;28;20130;-84
2024/02/28 03:00:49;;;;;;;0.10;0.10;;;;;;;;;;5077669;28;20063;-83
2024/02/28 03:03:15;;;;;;;0.20;0.20;;;;;;;;;;5111850;28;20046;-84
2024/02/28 03:05:41;;;;;;;0.10;0.10;;;;;;;;;;5094882;28;20162;-83
2024/02/28 03:08:08;;;;;;;0.10;0.10;;;;;;;;;;5094692;28;20032;-83
2024/02/28 03:10:34;;;;;;;0.13;0.13;;;;;;;;;;5094976;28;20042;-84
2024/02/28 03:13:00;;;;;;;0.10;0.10;;;;;;;;;;5094471;28;20039;-84
2024/02/28 03:15:26;;;;;;;0.10;0.10;;;;;;;;;;5094834;28;20047;-84
2024/02/28 03:17:52;;;;;;;0.10;0.10;;;;;;;;;;5093984;28;20042;-84
2024/02/28 03:20:18;;;;;;;0.10;0.10;;;;;;;;;;5094700;28;20118;-84
2024/02/28 03:22:44;;;;;;;0.10;0.10;;;;;;;;;;5094510;28;20084;-84
2024/02/28 03:25:10;;;;;;;0.10;0.10;;;;;;;;;;5111299;28;20040;-84
2024/02/28 03:27:36;;;;;;;0.30;0.30;;;;;;;;;;5094539;28;20391;-84
2024/02/28 03:30:03;;;;;;;0.10;0.10;;;;;;;;;;5077634;28;20065;-84
2024/02/28 03:32:29;;;;;;;0.10;0.10;;;;;;;;;;5077644;28;20081;-84
2024/02/28 03:34:55;;;;;;;0.95;0.30;;;;;;;;;;5077758;28;20483;-84
2024/02/28 03:37:21;;;;;;;0.10;0.10;;;;;;;;;;5094327;28;20114;-85
2024/02/28 03:39:47;;;;;;;0.10;0.10;;;;;;;;;;5077487;28;20554;-84
2024/02/28 03:42:13;;;;;;;0.10;0.10;;;;;;;;;;5077483;28;20039;-84
2024/02/28 03:44:39;;;;;;;0.20;0.20;;;;;;;;;;5094387;28;20036;-83
2024/02/28 03:47:05;;;;;;;0.10;0.10;;;;;;;;;;5094283;28;20039;-84
2024/02/28 03:49:31;;;;;;;0.10;0.10;;;;;;;;;;5077811;28;20074;-84
2024/02/28 03:51:57;;;;;;;0.10;0.10;;;;;;;;;;5077450;28;20047;-84
2024/02/28 03:54:23;;;;;;;0.10;0.10;;;;;;;;;;5077464;28;20097;-83
2024/02/28 03:56:49;;;;;;;0.10;0.10;;;;;;;;;;5094200;28;20042;-84
2024/02/28 03:59:15;;;;;;;0.10;0.10;;;;;;;;;;5077394;28;20082;-84
2024/02/28 04:01:42;;;;;;;0.20;0.20;;;;;;;;;;5077285;28;20139;-84
2024/02/28 04:04:08;;;;;;;0.43;0.43;;;;;;;;;;5077286;28;20043;-84
2024/02/28 04:06:34;;;;;;;0.10;0.10;;;;;;;;;;5111286;28;20432;-83
2024/02/28 04:09:00;;;;;;;0.10;0.10;;;;;;;;;;5077370;28;20031;-83
2024/02/28 04:11:26;;;;;;;0.10;0.10;;;;;;;;;;5094389;28;20093;-84
2024/02/28 04:13:52;;;;;;;0.30;0.20;;;;;;;;;;5111019;28;20044;-84
2024/02/28 04:16:18;;;;;;;0.10;0.10;;;;;;;;;;5077213;28;20044;-83
2024/02/28 04:18:44;;;;;;;0.10;0.10;;;;;;;;;;5111022;28;20617;-84
2024/02/28 04:21:10;;;;;;;0.35;0.20;;;;;;;;;;5111084;28;20066;-84
2024/02/28 04:23:38;;;;;;;0.10;0.10;;;;;;;;;;5110992;28;20134;-84
2024/02/28 04:26:04;;;;;;;0.17;0.13;;;;;;;;;;5077189;28;20039;-83
2024/02/28 04:28:30;;;;;;;0.20;0.20;;;;;;;;;;5110851;28;20040;-83
2024/02/28 04:30:56;;;;;;;0.40;0.40;;;;;;;;;;5081246;28;20097;-83
2024/02/28 04:33:22;;;;;;;0.10;0.10;;;;;;;;;;5080823;28;20040;-84
2024/02/28 04:35:48;;;;;;;0.20;0.20;;;;;;;;;;5080766;28;20039;-84
2024/02/28 04:38:14;;;;;;;0.10;0.10;;;;;;;;;;5080749;28;20039;-84
2024/02/28 04:40:41;;;;;;;0.10;0.10;;;;;;;;;;5080751;28;20432;-83
2024/02/28 04:43:07;;;;;;;0.10;0.10;;;;;;;;;;5081141;28;20044;-84
2024/02/28 04:45:33;;;;;;;0.32;0.25;;;;;;;;;;5114387;28;20039;-83
2024/02/28 04:47:59;;;;;;;0.10;0.10;;;;;;;;;;5097561;28;20036;-84
2024/02/28 04:50:25;;;;;;;0.10;0.10;;;;;;;;;;5080465;28;20123;-84
2024/02/28 04:52:51;;;;;;;0.10;0.10;;;;;;;;;;5114261;28;20043;-84
2024/02/28 04:55:17;;;;;;;0.10;0.10;;;;;;;;;;5080381;28;20051;-85
2024/02/28 04:57:43;;;;;;;0.10;0.10;;;;;;;;;;5097597;28;20075;-83
2024/02/28 05:00:09;;;;;;;0.10;0.10;;;;;;;;;;5097361;28;20047;-83
2024/02/28 05:02:35;;;;;;;0.45;0.45;;;;;;;;;;5113776;28;20525;-83
2024/02/28 05:05:01;;;;;;;0.10;0.10;;;;;;;;;;5080169;28;20054;-83
2024/02/28 05:07:27;;;;;;;0.30;0.30;;;;;;;;;;5114148;28;20123;-83
2024/02/28 05:09:53;;;;;;;0.10;0.10;;;;;;;;;;5097004;28;20094;-83
2024/02/28 05:12:19;;;;;;;0.10;0.10;;;;;;;;;;5096819;28;20063;-83
2024/02/28 05:14:45;;;;;;;0.10;0.10;;;;;;;;;;5113663;28;20051;-83
2024/02/28 05:17:11;;;;;;;0.10;0.10;;;;;;;;;;5079904;28;20035;-83
2024/02/28 05:19:37;;;;;;;0.43;0.43;;;;;;;;;;5096860;28;20043;-83
2024/02/28 05:22:05;;;;;;;0.10;0.10;;;;;;;;;;5096613;28;20039;-83
2024/02/28 05:24:31;;;;;;;0.30;0.20;;;;;;;;;;5079945;28;20453;-83
2024/02/28 05:26:57;;;;;;;0.10;0.10;;;;;;;;;;5096717;28;20043;-83
2024/02/28 05:29:23;;;;;;;0.10;0.10;;;;;;;;;;5096606;28;20660;-83
2024/02/28 05:31:49;;;;;;;0.10;0.10;;;;;;;;;;5079908;28;20092;-84
2024/02/28 05:34:16;;;;;;;0.20;0.20;;;;;;;;;;5114716;28;20495;-85
2024/02/28 05:36:42;;;;;;;0.30;0.30;;;;;;;;;;5079714;28;20051;-84
2024/02/28 05:39:08;;;;;;;0.10;0.10;;;;;;;;;;5096419;28;20043;-85
2024/02/28 05:41:34;;;;;;;0.10;0.10;;;;;;;;;;5078670;28;20040;-85
2024/02/28 05:44:00;;;;;;;0.32;0.32;;;;;;;;;;5079715;28;20075;-84
2024/02/28 05:46:26;;;;;;;0.10;0.10;;;;;;;;;;5079745;28;20356;-84
2024/02/28 05:48:52;;;;;;;0.10;0.10;;;;;;;;;;5079326;28;20032;-84
2024/02/28 05:51:18;;;;;;;0.10;0.10;;;;;;;;;;5096002;28;20047;-85
2024/02/28 05:53:44;;;;;;;0.10;0.10;;;;;;;;;;5079257;28;20043;-85
2024/02/28 05:56:14;;;;;;;0.20;0.20;;;;;;;;;;5079292;28;20058;-84
2024/02/28 05:58:43;;;;;;;0.20;0.20;;;;;;;;;;5079971;28;20100;-85
2024/02/28 06:01:13;;;;;;;0.10;0.10;;;;;;;;;;5095803;28;20051;-85
2024/02/28 06:03:39;;;;;;;0.10;0.10;;;;;;;;;;5079008;28;20043;-84
2024/02/28 06:06:05;;;;;;;0.10;0.10;;;;;;;;;;5079137;28;20072;-84
2024/02/28 06:08:35;;;;;;;0.10;0.10;;;;;;;;;;5079317;28;20401;-84
2024/02/28 06:11:01;;;;;;;0.10;0.10;;;;;;;;;;5079030;28;20043;-83
2024/02/28 06:13:30;;;;;;;0.10;0.10;;;;;;;;;;5078965;28;20039;-84
2024/02/28 06:15:57;;;;;;;0.10;0.10;;;;;;;;;;5096247;28;20066;-83
2024/02/28 06:18:26;;;;;;;0.10;0.10;;;;;;;;;;5078913;28;20111;-83
2024/02/28 06:20:52;;;;;;;0.10;0.10;;;;;;;;;;5079079;28;20043;-84
2024/02/28 06:23:18;;;;;;;0.10;0.10;;;;;;;;;;5078663;28;20036;-83
2024/02/28 06:25:45;;;;;;;0.10;0.10;;;;;;;;;;5095498;28;20092;-83
2024/02/28 06:28:11;;;;;;;0.10;0.10;;;;;;;;;;5078759;28;20054;-84
2024/02/28 06:30:37;;;;;;;0.10;0.10;;;;;;;;;;5078922;28;20093;-84
2024/02/28 06:33:04;;;;;;;0.73;0.20;;;;;;;;;;5078543;28;20043;-84
2024/02/28 06:35:30;;;;;;;0.10;0.10;;;;;;;;;;5095405;28;20043;-85
2024/02/28 06:37:56;;;;;;;0.10;0.10;;;;;;;;;;5078470;28;20036;-84
2024/02/28 06:40:22;;;;;;;0.10;0.10;;;;;;;;;;5095194;28;20047;-84
2024/02/28 06:42:49;;;;;;;0.75;0.75;;;;;;;;;;5078351;28;20501;-85
2024/02/28 06:45:16;;;;;;;0.10;0.10;;;;;;;;;;5112062;28;20445;-84
2024/02/28 06:47:43;;;;;;;0.10;0.10;;;;;;;;;;5111936;28;20066;-84
2024/02/28 06:50:11;;;;;;;0.10;0.10;;;;;;;;;;5095630;28;20131;-83
2024/02/28 06:52:37;;;;;;;0.25;0.25;;;;;;;;;;5078169;28;20042;-87
2024/02/28 06:55:09;;;;;;;0.10;0.10;;;;;;;;;;5078572;28;20131;-86
2024/02/28 06:57:36;;;;;;;0.10;0.10;;;;;;;;;;5096065;28;20047;-87
2024/02/28 07:00:02;;;;;;;0.82;0.82;;;;;;;;;;5078063;28;20040;-84
2024/02/28 07:02:28;;;;;;;0.10;0.10;;;;;;;;;;5077802;28;20086;-85
2024/02/28 07:04:54;;;;;;;0.20;0.20;;;;;;;;;;5077864;28;20477;-84
2024/02/28 07:07:20;;;;;;;0.10;0.10;;;;;;;;;;5094861;28;20040;-85
2024/02/28 07:09:46;;;;;;;0.10;0.10;;;;;;;;;;5111621;28;20036;-85
2024/02/28 07:12:12;;;;;;;0.10;0.10;;;;;;;;;;5077848;28;20031;-84
2024/02/28 07:14:38;;;;;;;0.40;0.25;;;;;;;;;;5077802;28;20083;-84
2024/02/28 07:17:06;;;;;;;0.10;0.10;;;;;;;;;;5094785;28;20035;-85
2024/02/28 07:19:32;;;;;;;0.10;0.10;;;;;;;;;;5094524;28;20046;-85
2024/02/28 07:21:58;;;;;;;0.40;0.20;;;;;;;;;;5077933;28;20208;-85
2024/02/28 07:24:25;;;;;;;0.13;0.10;;;;;;;;;;5094569;28;20058;-84
2024/02/28 07:26:51;;;;;;;0.30;0.30;;;;;;;;;;5078030;28;20078;-84
2024/02/28 07:29:17;;;;;;;0.10;0.10;;;;;;;;;;5077635;28;20036;-84
2024/02/28 07:31:43;;;;;;;2.08;0.40;;;;;;;;;;5077567;28;20050;-84
2024/02/28 07:34:09;;;;;;;1.05;1.00;;;;;;;;;;5077769;28;20054;-84
2024/02/28 07:36:37;;;;;;;0.10;0.10;;;;;;;;;;5077636;28;20046;-84
2024/02/28 07:39:03;;;;;;;0.10;0.10;;;;;;;;;;5094673;28;20432;-84
2024/02/28 07:41:29;;;;;;;0.85;0.20;;;;;;;;;;5077445;28;20093;-84
2024/02/28 07:43:55;;;;;;;0.20;0.20;;;;;;;;;;5094511;28;20043;-84
2024/02/28 07:46:21;;;;;;;0.10;0.10;;;;;;;;;;5094338;28;20067;-84
2024/02/28 07:48:47;;;;;;;0.20;0.20;;;;;;;;;;5077524;28;20040;-84
2024/02/28 07:51:15;;;;;;;0.10;0.10;;;;;;;;;;5094244;28;20130;-84
2024/02/28 07:53:41;;;;;;;0.10;0.10;;;;;;;;;;5111226;28;20048;-84
2024/02/28 07:56:07;;;;;;;0.10;0.10;;;;;;;;;;5094423;28;20089;-84
2024/02/28 07:58:33;;;;;;;0.10;0.10;;;;;;;;;;5094114;28;20036;-84
2024/02/28 08:00:59;;;;;;;0.10;0.10;;;;;;;;;;5077094;28;20056;-83
2024/02/28 08:03:25;;;;;;;0.10;0.10;;;;;;;;;;5077478;28;20035;-84
2024/02/28 08:05:51;;;;;;;0.10;0.10;;;;;;;;;;5081225;28;20116;-84
2024/02/28 08:08:17;;;;;;;0.13;0.13;;;;;;;;;;5098234;28;20075;-86
2024/02/28 08:10:45;;;;;;;0.10;0.10;;;;;;;;;;5081501;28;20036;-85
2024/02/28 08:13:11;;;;;;;0.30;0.30;;;;;;;;;;5081813;28;20050;-86
2024/02/28 08:15:37;;;;;;;0.10;0.10;;;;;;;;;;5081414;28;20035;-86
2024/02/28 08:18:03;;;;;;;0.10;0.10;;;;;;;;;;5081320;28;20090;-87
2024/02/28 08:20:29;;;;;;;0.38;0.38;;;;;;;;;;5081948;28;20062;-88
2024/02/28 08:22:57;;;;;;;0.10;0.10;;;;;;;;;;5097995;28;20562;-86
2024/02/28 08:25:23;;;;;;;1.25;0.20;;;;;;;;;;5097851;28;20040;-84
2024/02/28 08:27:49;;;;;;;0.10;0.10;;;;;;;;;;5081234;28;20071;-83
2024/02/28 08:30:15;;;;;;;0.10;0.10;;;;;;;;;;5114710;28;20118;-85
2024/02/28 08:32:41;;;;;;;0.43;0.43;;;;;;;;;;5080910;28;20036;-86
2024/02/28 08:35:10;;;;;;;0.10;0.10;;;;;;;;;;5098248;28;20040;-85
2024/02/28 08:37:36;;;;;;;0.13;0.13;;;;;;;;;;5115797;28;20044;-84
2024/02/28 08:40:02;;;;;;;0.10;0.10;;;;;;;;;;5097451;28;20514;-86
2024/02/28 08:42:28;;;;;;;0.10;0.10;;;;;;;;;;5080628;28;20044;-82
2024/02/28 08:44:54;;;;;;;0.20;0.20;;;;;;;;;;5079584;28;20042;-82
2024/02/28 08:47:27;;;;;;;0.10;0.10;;;;;;;;;;5097159;28;20040;-84
2024/02/28 08:49:56;;;;;;;0.10;0.10;;;;;;;;;;5080185;28;20039;-82
2024/02/28 08:52:22;;;;;;;0.10;0.10;;;;;;;;;;5097077;28;20043;-82
2024/02/28 08:54:48;;;;;;;0.20;0.20;;;;;;;;;;5097065;28;20046;-81
2024/02/28 08:57:14;;;;;;;0.20;0.20;;;;;;;;;;5097139;28;20430;-82
2024/02/28 08:59:41;;;;;;;0.20;0.20;;;;;;;;;;5099268;28;20055;-82
2024/02/28 09:02:07;;;;;;;0.10;0.10;;;;;;;;;;5093393;28;20120;-82
2024/02/28 09:04:33;;;;;;;0.10;0.10;;;;;;;;;;5060235;28;20075;-82
2024/02/28 09:06:59;;;;;;;0.20;0.17;;;;;;;;;;5060295;28;20472;-82
2024/02/28 09:09:26;;;;;;;0.38;0.38;;;;;;;;;;5093562;28;20476;-81
2024/02/28 09:11:52;;;;;;;0.10;0.10;;;;;;;;;;5093715;28;20036;-81
2024/02/28 09:14:18;;;;;;;0.20;0.20;;;;;;;;;;5060239;28;20447;-82
2024/02/28 09:16:44;;;;;;;0.10;0.10;;;;;;;;;;5058932;28;20040;-81
2024/02/28 09:19:10;;;;;;;0.30;0.30;;;;;;;;;;5093502;28;20047;-82
2024/02/28 09:21:36;;;;;;;0.38;0.38;;;;;;;;;;5059664;28;20040;-82
2024/02/28 09:24:02;;;;;;;0.10;0.10;;;;;;;;;;5093038;28;20510;-82
2024/02/28 09:26:28;;;;;;;0.10;0.10;;;;;;;;;;5093202;28;20051;-83
2024/02/28 09:28:54;;;;;;;0.20;0.20;;;;;;;;;;5076401;28;20492;-83
2024/02/28 09:31:20;;;;;;;0.10;0.10;;;;;;;;;;5093046;28;20483;-82
2024/02/28 09:33:46;;;;;;;0.20;0.20;;;;;;;;;;5094471;28;20040;-83
2024/02/28 09:36:12;;;;;;;0.10;0.10;;;;;;;;;;5093002;28;20035;-83
2024/02/28 09:38:39;;;;;;;0.15;0.15;;;;;;;;;;5096563;28;20047;-82
2024/02/28 09:41:05;;;;;;;2.42;0.40;;;;;;;;;;5096426;28;20122;-82
2024/02/28 09:43:37;;;;;;;0.13;0.13;;;;;;;;;;5113587;28;20155;-83
2024/02/28 09:46:04;;;;;;;0.10;0.10;;;;;;;;;;5096184;28;20097;-82
2024/02/28 09:48:30;;;;;;;0.85;0.85;;;;;;;;;;5096583;28;20058;-82
2024/02/28 09:51:03;;;;;;;0.10;0.10;;;;;;;;;;5096311;28;20123;-83
2024/02/28 09:53:29;;;;;;;0.17;0.17;;;;;;;;;;5113151;28;20042;-81
2024/02/28 09:55:55;;;;;;;0.10;0.10;;;;;;;;;;5079161;28;20123;-86
2024/02/28 09:58:21;;;;;;;0.10;0.10;;;;;;;;;;5079090;28;20489;-81
2024/02/28 10:00:47;;;;;;;0.20;0.20;;;;;;;;;;5095357;28;20035;-82
2024/02/28 10:03:20;;;;;;;0.10;0.10;;;;;;;;;;5112498;28;20071;-83
2024/02/28 10:05:49;;;;;;;0.40;0.40;;;;;;;;;;5079083;28;20082;-82
2024/02/28 10:08:15;;;;;;;0.10;0.10;;;;;;;;;;5078925;28;20032;-82
2024/02/28 10:10:48;;;;;;;0.32;0.32;;;;;;;;;;5112694;28;20051;-82
2024/02/28 10:13:16;;;;;;;0.10;0.10;;;;;;;;;;5095696;28;20466;-82
2024/02/28 10:15:42;;;;;;;0.22;0.22;;;;;;;;;;5078576;28;20152;-82
2024/02/28 10:18:08;;;;;;;0.28;0.28;;;;;;;;;;5079089;28;20047;-82
2024/02/28 10:20:34;;;;;;;0.17;0.15;;;;;;;;;;5095600;28;20035;-82
2024/02/28 10:23:04;;;;;;;0.22;0.20;;;;;;;;;;5078781;28;20157;-81
2024/02/28 10:25:30;;;;;;;0.30;0.30;;;;;;;;;;5112038;28;20047;-84
2024/02/28 10:28:00;;;;;;;0.10;0.10;;;;;;;;;;5078109;28;20045;-81
2024/02/28 10:30:26;;;;;;;0.10;0.10;;;;;;;;;;5078357;28;20078;-82
2024/02/28 10:32:53;;;;;;;0.20;0.20;;;;;;;;;;5095106;28;20093;-81
2024/02/28 10:35:19;;;;;;;0.10;0.10;;;;;;;;;;5095410;28;20040;-81
2024/02/28 10:37:45;;;;;;;0.10;0.10;;;;;;;;;;5112216;28;20039;-82
2024/02/28 10:40:12;;;;;;;0.20;0.20;;;;;;;;;;5094691;28;20039;-82
2024/02/28 10:42:39;;;;;;;0.10;0.10;;;;;;;;;;5077636;28;20055;-81
2024/02/28 10:45:05;;;;;;;0.10;0.10;;;;;;;;;;5112852;28;20436;-81
2024/02/28 10:47:31;;;;;;;0.40;0.40;;;;;;;;;;5111963;28;20126;-85
2024/02/28 10:49:57;;;;;;;0.10;0.10;;;;;;;;;;5078360;28;20062;-82
2024/02/28 10:52:23;;;;;;;0.10;0.10;;;;;;;;;;5111911;28;20040;-81
2024/02/28 10:54:52;;;;;;;0.35;0.35;;;;;;;;;;5095293;28;20040;-81
2024/02/28 10:57:18;;;;;;;0.10;0.10;;;;;;;;;;5078397;28;20039;-82
2024/02/28 10:59:44;;;;;;;0.20;0.10;;;;;;;;;;5079563;28;20043;-80
2024/02/28 11:02:10;;;;;;;0.10;0.10;;;;;;;;;;5094703;28;20116;-80
2024/02/28 11:04:36;;;;;;;0.10;0.10;;;;;;;;;;5111356;28;20112;-81
2024/02/28 11:07:03;;;;;;;0.40;0.30;;;;;;;;;;5094685;28;20046;-82
2024/02/28 11:09:32;;;;;;;0.35;0.35;;;;;;;;;;5078128;28;20051;-80
2024/02/28 11:11:58;;;;;;;0.25;0.25;;;;;;;;;;5094470;28;20088;-80
2024/02/28 11:14:26;;;;;;;0.20;0.20;;;;;;;;;;5111741;28;20051;-80
2024/02/28 11:17:01;;;;;;;0.10;0.10;;;;;;;;;;5111820;28;20047;-81
2024/02/28 11:19:28;;;;;;;0.20;0.20;;;;;;;;;;5094565;28;20043;-84
2024/02/28 11:21:54;;;;;;;0.17;0.17;;;;;;;;;;5094753;28;20390;-82
2024/02/28 11:24:24;;;;;;;0.13;0.13;;;;;;;;;;5094117;28;20044;-82
2024/02/28 11:26:51;;;;;;;0.10;0.10;;;;;;;;;;5094389;28;20429;-82
2024/02/28 11:29:17;;;;;;;0.10;0.10;;;;;;;;;;5094324;28;20126;-82
2024/02/28 11:31:43;;;;;;;0.10;0.10;;;;;;;;;;5077657;28;20050;-82
2024/02/28 11:34:09;;;;;;;0.20;0.20;;;;;;;;;;5077418;28;20046;-87
2024/02/28 11:36:36;;;;;;;0.20;0.20;;;;;;;;;;5077252;28;20040;-83
2024/02/28 11:39:03;;;;;;;0.25;0.25;;;;;;;;;;5093739;28;20039;-83
2024/02/28 11:41:29;;;;;;;0.52;0.40;;;;;;;;;;5094524;28;20059;-83
2024/02/28 11:43:55;;;;;;;0.10;0.10;;;;;;;;;;5094158;28;20080;-83
2024/02/28 11:46:21;;;;;;;0.10;0.10;;;;;;;;;;5077461;28;20120;-83
2024/02/28 11:48:47;;;;;;;0.20;0.20;;;;;;;;;;5094206;28;20047;-84
2024/02/28 11:51:13;;;;;;;0.85;0.77;;;;;;;;;;5111073;28;20039;-82
2024/02/28 11:53:39;;;;;;;0.20;0.20;;;;;;;;;;5094047;28;20126;-83
2024/02/28 11:56:05;;;;;;;0.17;0.17;;;;;;;;;;5077146;28;20035;-84
2024/02/28 11:58:33;;;;;;;0.40;0.40;;;;;;;;;;5077398;28;20036;-83
2024/02/28 12:00:59;;;;;;;0.20;0.20;;;;;;;;;;5077019;28;20056;-82
2024/02/28 12:03:26;;;;;;;0.20;0.20;;;;;;;;;;5093955;28;20440;-83
2024/02/28 12:05:52;;;;;;;0.55;0.47;;;;;;;;;;5077164;28;20047;-84
2024/02/28 12:08:21;;;;;;;0.45;0.45;;;;;;;;;;5094223;28;20046;-83
2024/02/28 12:10:47;;;;;;;0.10;0.10;;;;;;;;;;5112104;28;20118;-83
2024/02/28 12:13:20;;;;;;;0.10;0.10;;;;;;;;;;5093923;28;20039;-83
2024/02/28 12:15:47;;;;;;;;;;;;;;;;;;5094687;28;20391;-82
2024/02/28 12:18:13;;;;;;;0.35;0.35;;;;;;;;;;5112168;28;19915;-82
2024/02/28 12:20:39;;;;;;;0.25;0.25;;;;;;;;;;5093827;28;20048;-81
2024/02/28 12:23:05;;;;;;;0.20;0.20;;;;;;;;;;5093775;28;20039;-82
2024/02/28 12:25:32;;;;;;;0.20;0.20;;;;;;;;;;5093813;28;20432;-81
2024/02/28 12:27:58;;;;;;;0.43;0.43;;;;;;;;;;5093755;28;20035;-80
2024/02/28 12:30:24;;;;;;;0.30;0.30;;;;;;;;;;5093928;28;20042;-83
2024/02/28 12:32:50;;;;;;;0.22;0.22;;;;;;;;;;5077361;28;20047;-82
2024/02/28 12:35:18;;;;;;;0.20;0.20;;;;;;;;;;5077296;28;20039;-82
2024/02/28 12:37:44;;;;;;;0.25;0.25;;;;;;;;;;5077403;28;20055;-84
2024/02/28 12:40:10;;;;;;;0.73;0.73;;;;;;;;;;5093872;28;20113;-81
2024/02/28 12:42:37;;;;;;;0.25;0.25;;;;;;;;;;5077043;28;20075;-81
2024/02/28 12:45:03;;;;;;;0.20;0.20;;;;;;;;;;5076831;28;20097;-81
2024/02/28 12:47:31;;;;;;;0.55;0.55;;;;;;;;;;5110783;28;20036;-82
2024/02/28 12:49:57;;;;;;;0.88;0.20;;;;;;;;;;5094210;28;20042;-83
2024/02/28 12:52:24;;;;;;;0.10;0.10;;;;;;;;;;5097131;28;20532;-83
2024/02/28 12:54:50;;;;;;;1.15;0.65;;;;;;;;;;5080685;28;20475;-83
2024/02/28 12:57:16;;;;;;;0.10;0.10;;;;;;;;;;5080157;28;20122;-84
2024/02/28 12:59:42;;;;;;;0.10;0.10;;;;;;;;;;5113907;28;20478;-83
2024/02/28 13:02:09;;;;;;;0.10;0.10;;;;;;;;;;5096777;28;20539;-83
2024/02/28 13:04:35;;;;;;;0.20;0.20;;;;;;;;;;5096984;28;20040;-83
2024/02/28 13:07:02;;;;;;;0.20;0.20;;;;;;;;;;5080101;28;20038;-83
2024/02/28 13:09:28;;;;;;;0.17;0.17;;;;;;;;;;5097000;28;20521;-82
2024/02/28 13:11:54;;;;;;;0.10;0.10;;;;;;;;;;5097024;28;20084;-83
2024/02/28 13:14:20;;;;;;;0.13;0.13;;;;;;;;;;5096759;28;20042;-83
2024/02/28 13:16:46;;;;;;;0.60;0.30;;;;;;;;;;5097060;28;20429;-82
2024/02/28 13:19:13;;;;;;;0.20;0.20;;;;;;;;;;5096626;28;20047;-82
2024/02/28 13:21:39;;;;;;;0.20;0.20;;;;;;;;;;5079941;28;20047;-82
2024/02/28 13:24:05;;;;;;;0.20;0.20;;;;;;;;;;5096673;28;20088;-82
2024/02/28 13:26:32;;;;;;;0.20;0.20;;;;;;;;;;5079709;28;20495;-85
2024/02/28 13:28:58;;;;;;;0.20;0.20;;;;;;;;;;5096706;28;20039;-86
2024/02/28 13:31:24;;;;;;;0.10;0.10;;;;;;;;;;5079662;28;20039;-85
2024/02/28 13:33:50;;;;;;;0.10;0.10;;;;;;;;;;5096512;28;20517;-85
2024/02/28 13:36:16;;;;;;;0.38;0.38;;;;;;;;;;5079659;28;20039;-84
2024/02/28 13:38:42;;;;;;;0.28;0.28;;;;;;;;;;5079764;28;20043;-84
2024/02/28 13:41:08;;;;;;;0.25;0.25;;;;;;;;;;5079461;28;20498;-83
2024/02/28 13:43:34;;;;;;;0.20;0.20;;;;;;;;;;5096213;28;20044;-83
2024/02/28 13:46:00;;;;;;;0.22;0.22;;;;;;;;;;5096230;28;20076;-84
2024/02/28 13:48:28;;;;;;;0.55;0.20;;;;;;;;;;5096082;28;20501;-85
2024/02/28 13:50:54;;;;;;;0.10;0.10;;;;;;;;;;5079824;28;20121;-84
2024/02/28 13:53:20;;;;;;;0.20;0.20;;;;;;;;;;5096156;28;20036;-84
2024/02/28 13:55:46;;;;;;;0.10;0.10;;;;;;;;;;5079498;28;20096;-84
2024/02/28 13:58:12;;;;;;;0.10;0.10;;;;;;;;;;5096009;28;20479;-84
2024/02/28 14:00:39;;;;;;;0.10;0.10;;;;;;;;;;5078757;28;20047;-84
2024/02/28 14:03:06;;;;;;;0.30;0.25;;;;;;;;;;5095254;28;20043;-84
2024/02/28 14:05:32;;;;;;;0.20;0.20;;;;;;;;;;5096181;28;20505;-83
2024/02/28 14:07:58;;;;;;;0.88;0.88;;;;;;;;;;5079013;28;20074;-84
2024/02/28 14:10:24;;;;;;;0.20;0.20;;;;;;;;;;5096186;28;20091;-85
2024/02/28 14:12:53;;;;;;;0.10;0.10;;;;;;;;;;5079234;28;20043;-86
2024/02/28 14:15:19;;;;;;;0.30;0.30;;;;;;;;;;5079139;28;20035;-84
2024/02/28 14:17:47;;;;;;;0.10;0.10;;;;;;;;;;5079139;28;20043;-86
2024/02/28 14:20:13;;;;;;;0.10;0.10;;;;;;;;;;5095606;28;20035;-86
2024/02/28 14:22:41;;;;;;;0.80;0.47;;;;;;;;;;5095105;28;20043;-84
2024/02/28 14:25:14;;;;;;;0.43;0.35;;;;;;;;;;5078756;28;20048;-84
2024/02/28 14:27:41;;;;;;;0.52;0.52;;;;;;;;;;5095491;28;20540;-85
2024/02/28 14:30:08;;;;;;;0.15;0.15;;;;;;;;;;5078625;28;20150;-85
2024/02/28 14:32:35;;;;;;;0.40;0.40;;;;;;;;;;5078440;28;20036;-84
2024/02/28 14:35:01;;;;;;;0.20;0.20;;;;;;;;;;5078477;28;20116;-85
2024/02/28 14:37:28;;;;;;;0.52;0.43;;;;;;;;;;5095402;28;20050;-86